createdAt,value
2023-05-05T00:01:55.857Z,3.58
2023-05-05T00:02:57.549Z,3.25
2023-05-05T00:05:03.942Z,3.70
2023-05-05T00:06:08.331Z,3.45
2023-05-05T00:07:10.060Z,3.20
2023-05-05T00:08:13.973Z,3.20
2023-05-05T00:09:15.710Z,3.40
2023-05-05T00:10:17.491Z,3.50
2023-05-05T00:12:20.727Z,3.17
2023-05-05T00:14:26.249Z,3.92
2023-05-05T00:15:27.950Z,3.60
2023-05-05T00:17:31.165Z,3.17
2023-05-05T00:18:35.193Z,3.20
2023-05-05T00:19:37.088Z,3.63
2023-05-05T00:20:38.706Z,2.90
2023-05-05T00:21:40.359Z,3.35
2023-05-05T00:23:45.669Z,4.43
2023-05-05T00:24:49.630Z,3.90
2023-05-05T00:25:51.353Z,3.70
2023-05-05T00:26:52.919Z,3.38
2023-05-05T00:27:54.847Z,3.30
2023-05-05T00:28:56.518Z,3.20
2023-05-05T00:29:58.135Z,3.33
2023-05-05T00:31:02.282Z,3.28
2023-05-05T00:32:04.435Z,3.00
2023-05-05T00:33:06.555Z,3.08
2023-05-05T00:34:10.441Z,3.00
2023-05-05T00:35:12.142Z,3.10
2023-05-05T00:36:14.761Z,3.25
2023-05-05T00:37:16.618Z,3.17
2023-05-05T00:38:18.271Z,3.10
2023-05-05T00:39:22.226Z,3.28
2023-05-05T00:40:25.289Z,3.22
2023-05-05T00:41:29.588Z,3.05
2023-05-05T00:42:41.949Z,3.40
2023-05-05T00:43:45.929Z,3.40
2023-05-05T00:44:50.404Z,3.60
2023-05-05T00:45:59.994Z,3.20
2023-05-05T00:47:01.671Z,3.58
2023-05-05T00:49:05.488Z,3.67
2023-05-05T00:51:12.881Z,3.47
2023-05-05T00:52:14.514Z,3.45
2023-05-05T00:53:16.218Z,3.17
2023-05-05T00:55:19.402Z,3.25
2023-05-05T00:57:25.372Z,3.22
2023-05-05T00:58:30.543Z,3.42
2023-05-05T00:59:34.752Z,3.25
2023-05-05T01:00:39.186Z,3.30
2023-05-05T01:01:41.222Z,3.30
2023-05-05T01:02:46.114Z,2.97
2023-05-05T01:03:48.132Z,3.15
2023-05-05T01:04:49.754Z,3.83
2023-05-05T01:06:19.954Z,3.10
2023-05-05T01:07:34.113Z,2.85
2023-05-05T01:08:48.327Z,3.00
2023-05-05T01:10:17.966Z,3.42
2023-05-05T01:11:45.520Z,3.13
2023-05-05T01:13:08.871Z,3.00
2023-05-05T01:14:18.490Z,3.20
2023-05-05T01:15:44.653Z,3.10
2023-05-05T01:16:54.802Z,3.28
2023-05-05T01:18:04.288Z,3.20
2023-05-05T01:19:08.583Z,2.92
2023-05-05T01:20:47.868Z,3.10
2023-05-05T01:22:02.193Z,3.42
2023-05-05T01:23:07.315Z,3.05
2023-05-05T01:24:31.796Z,3.63
2023-05-05T01:25:50.708Z,3.45
2023-05-05T01:27:16.616Z,3.42
2023-05-05T01:28:31.186Z,3.10
2023-05-05T01:29:47.709Z,3.30
2023-05-05T01:31:10.679Z,3.22
2023-05-05T01:32:16.135Z,3.50
2023-05-05T01:33:27.870Z,3.15
2023-05-05T01:34:45.107Z,3.05
2023-05-05T01:35:52.333Z,3.10
2023-05-05T01:37:08.486Z,3.00
2023-05-05T01:38:16.322Z,3.40
2023-05-05T01:39:19.458Z,2.90
2023-05-05T01:40:26.727Z,2.67
2023-05-05T01:41:34.486Z,3.00
2023-05-05T01:42:41.124Z,3.17
2023-05-05T01:43:50.329Z,3.20
2023-05-05T01:44:54.270Z,3.30
2023-05-05T01:45:57.533Z,3.30
2023-05-05T01:47:01.261Z,3.00
2023-05-05T01:48:05.324Z,2.90
2023-05-05T01:49:09.956Z,3.13
2023-05-05T01:50:13.504Z,3.60
2023-05-05T01:51:19.153Z,3.17
2023-05-05T01:52:22.612Z,3.25
2023-05-05T01:53:26.607Z,3.30
2023-05-05T01:54:29.664Z,3.35
2023-05-05T01:55:33.847Z,3.28
2023-05-05T01:56:38.707Z,3.55
2023-05-05T01:57:42.434Z,3.17
2023-05-05T01:58:46.619Z,3.05
2023-05-05T01:59:51.230Z,3.40
2023-05-05T02:00:56.726Z,3.00
2023-05-05T02:02:02.781Z,3.30
2023-05-05T02:03:08.527Z,3.10
2023-05-05T02:04:14.444Z,3.28
2023-05-05T02:05:19.360Z,3.22
2023-05-05T02:06:22.756Z,2.97
2023-05-05T02:07:24.511Z,3.20
2023-05-05T02:09:29.479Z,3.22
2023-05-05T02:10:34.213Z,2.92
2023-05-05T02:11:36.470Z,3.25
2023-05-05T02:12:40.993Z,2.90
2023-05-05T02:13:46.782Z,2.83
2023-05-05T02:14:53.670Z,2.97
2023-05-05T02:15:57.034Z,3.00
2023-05-05T02:16:58.987Z,3.08
2023-05-05T02:18:02.175Z,2.75
2023-05-05T02:19:06.796Z,3.38
2023-05-05T02:20:11.877Z,3.08
2023-05-05T02:21:14.881Z,3.30
2023-05-05T02:22:16.870Z,3.00
2023-05-05T02:23:21.376Z,3.20
2023-05-05T02:24:26.367Z,3.25
2023-05-05T02:25:36.981Z,3.45
2023-05-05T02:26:44.192Z,2.78
2023-05-05T02:27:50.803Z,2.80
2023-05-05T02:29:02.045Z,3.03
2023-05-05T02:30:08.761Z,3.00
2023-05-05T02:31:14.727Z,2.83
2023-05-05T02:32:34.739Z,3.05
2023-05-05T02:33:38.598Z,3.28
2023-05-05T02:34:41.759Z,3.05
2023-05-05T02:35:47.511Z,2.92
2023-05-05T02:36:54.353Z,3.50
2023-05-05T02:38:02.683Z,3.63
2023-05-05T02:39:19.082Z,3.58
2023-05-05T02:40:26.050Z,3.53
2023-05-05T02:41:31.820Z,3.25
2023-05-05T02:42:41.843Z,3.13
2023-05-05T02:43:48.608Z,3.60
2023-05-05T02:44:52.997Z,3.30
2023-05-05T02:45:54.893Z,3.30
2023-05-05T02:46:57.986Z,3.20
2023-05-05T02:48:04.365Z,3.20
2023-05-05T02:49:09.278Z,3.50
2023-05-05T02:50:15.662Z,3.03
2023-05-05T02:51:24.852Z,3.22
2023-05-05T02:53:29.261Z,2.95
2023-05-05T02:54:31.632Z,3.28
2023-05-05T02:55:54.874Z,3.60
2023-05-05T02:57:01.378Z,3.45
2023-05-05T02:58:14.005Z,3.40
2023-05-05T02:59:29.996Z,3.25
2023-05-05T03:00:52.618Z,3.63
2023-05-05T03:02:37.127Z,3.40
2023-05-05T03:03:44.860Z,2.80
2023-05-05T03:05:02.410Z,3.22
2023-05-05T03:06:17.452Z,3.13
2023-05-05T03:07:30.739Z,3.65
2023-05-05T03:09:14.475Z,3.63
2023-05-05T03:10:21.973Z,3.70
2023-05-05T03:11:45.660Z,3.60
2023-05-05T03:12:59.914Z,3.20
2023-05-05T03:14:12.392Z,3.50
2023-05-05T03:15:18.320Z,3.30
2023-05-05T03:16:23.219Z,3.20
2023-05-05T03:17:26.123Z,3.58
2023-05-05T03:18:31.285Z,3.20
2023-05-05T03:19:37.811Z,3.05
2023-05-05T03:20:42.703Z,3.10
2023-05-05T03:21:46.497Z,3.20
2023-05-05T03:22:48.631Z,3.17
2023-05-05T03:23:51.121Z,3.30
2023-05-05T03:24:55.622Z,3.33
2023-05-05T03:25:59.032Z,3.13
2023-05-05T03:27:14.629Z,3.10
2023-05-05T03:28:18.115Z,3.50
2023-05-05T03:29:21.987Z,3.25
2023-05-05T03:30:24.333Z,3.50
2023-05-05T03:31:28.415Z,3.55
2023-05-05T03:32:35.738Z,3.40
2023-05-05T03:33:39.818Z,3.67
2023-05-05T03:34:43.651Z,3.63
2023-05-05T03:35:45.529Z,3.63
2023-05-05T03:36:50.800Z,3.70
2023-05-05T03:37:52.471Z,3.97
2023-05-05T03:39:59.462Z,3.50
2023-05-05T03:41:03.295Z,3.47
2023-05-05T03:42:05.986Z,3.55
2023-05-05T03:43:10.656Z,3.70
2023-05-05T03:44:12.647Z,3.72
2023-05-05T03:45:14.352Z,3.92
2023-05-05T03:47:18.372Z,3.40
2023-05-05T03:49:21.810Z,3.90
2023-05-05T03:50:24.416Z,3.80
2023-05-05T03:52:30.356Z,3.63
2023-05-05T03:53:32.341Z,3.95
2023-05-05T03:54:35.668Z,3.13
2023-05-05T03:55:37.386Z,3.20
2023-05-05T03:56:41.467Z,3.45
2023-05-05T03:58:50.134Z,4.00
2023-05-05T03:59:54.201Z,4.00
2023-05-05T04:00:55.930Z,3.92
2023-05-05T04:01:57.711Z,3.70
2023-05-05T04:02:59.386Z,4.00
2023-05-05T04:04:01.598Z,4.30
2023-05-05T04:05:05.758Z,4.03
2023-05-05T04:06:10.033Z,4.28
2023-05-05T04:08:16.004Z,3.83
2023-05-05T04:10:19.307Z,3.80
2023-05-05T04:12:25.349Z,3.53
2023-05-05T04:13:31.621Z,4.05
2023-05-05T04:14:34.582Z,4.20
2023-05-05T04:15:38.745Z,4.13
2023-05-05T04:16:40.520Z,3.70
2023-05-05T04:17:42.747Z,3.58
2023-05-05T04:18:44.362Z,3.58
2023-05-05T04:20:47.746Z,3.50
2023-05-05T04:21:52.008Z,3.72
2023-05-05T04:22:56.218Z,3.50
2023-05-05T04:23:58.795Z,4.15
2023-05-05T04:25:01.246Z,3.97
2023-05-05T04:26:03.257Z,4.22
2023-05-05T04:27:05.812Z,4.32
2023-05-05T04:28:07.365Z,4.28
2023-05-05T04:29:09.868Z,4.25
2023-05-05T04:32:47.466Z,4.13
2023-05-05T04:33:52.888Z,4.15
2023-05-05T04:34:54.759Z,4.47
2023-05-05T04:35:57.189Z,4.18
2023-05-05T04:36:59.538Z,4.60
2023-05-05T04:39:06.988Z,4.28
2023-05-05T04:40:09.685Z,4.20
2023-05-05T04:41:12.791Z,4.85
2023-05-05T04:42:16.943Z,4.60
2023-05-05T04:44:20.685Z,4.13
2023-05-05T04:45:22.288Z,4.13
2023-05-05T04:47:26.378Z,3.72
2023-05-05T04:48:28.114Z,3.70
2023-05-05T04:50:32.362Z,4.20
2023-05-05T04:51:41.306Z,3.85
2023-05-05T04:52:43.018Z,3.88
2023-05-05T04:53:44.645Z,3.95
2023-05-05T04:54:48.563Z,3.92
2023-05-05T04:55:50.263Z,3.88
2023-05-05T04:56:52.729Z,4.32
2023-05-05T04:58:58.198Z,3.55
2023-05-05T05:00:01.539Z,4.43
2023-05-05T05:01:03.480Z,4.63
2023-05-05T05:02:05.278Z,4.38
2023-05-05T05:04:13.123Z,3.97
2023-05-05T05:05:14.809Z,3.75
2023-05-05T05:06:16.649Z,4.10
2023-05-05T05:07:18.303Z,3.90
2023-05-05T05:09:21.508Z,3.92
2023-05-05T05:10:23.041Z,3.83
2023-05-05T05:11:24.743Z,3.83
2023-05-05T05:12:26.392Z,4.20
2023-05-05T05:14:30.126Z,5.43
2023-05-05T05:15:31.743Z,5.47
2023-05-05T05:16:35.871Z,4.63
2023-05-05T05:17:40.526Z,5.07
2023-05-05T05:18:42.529Z,5.18
2023-05-05T05:19:44.138Z,5.70
2023-05-05T05:21:51.082Z,5.45
2023-05-05T05:22:54.969Z,5.40
2023-05-05T05:23:57.218Z,5.65
2023-05-05T05:24:59.709Z,5.20
2023-05-05T05:26:01.377Z,4.35
2023-05-05T05:27:09.825Z,4.70
2023-05-05T05:28:14.462Z,4.55
2023-05-05T05:29:21.774Z,4.60
2023-05-05T05:30:23.835Z,4.47
2023-05-05T05:31:27.805Z,4.20
2023-05-05T05:32:29.779Z,4.20
2023-05-05T05:34:34.014Z,3.90
2023-05-05T05:35:36.146Z,3.97
2023-05-05T05:36:38.277Z,4.20
2023-05-05T05:37:42.427Z,3.70
2023-05-05T05:38:46.209Z,3.92
2023-05-05T05:39:53.669Z,3.60
2023-05-05T05:40:59.656Z,3.78
2023-05-05T05:42:04.025Z,3.55
2023-05-05T05:43:10.236Z,3.45
2023-05-05T05:44:12.229Z,4.10
2023-05-05T05:45:14.122Z,3.90
2023-05-05T05:47:17.905Z,3.55
2023-05-05T05:48:21.457Z,3.33
2023-05-05T05:49:23.345Z,3.60
2023-05-05T05:51:33.064Z,3.80
2023-05-05T05:52:36.142Z,3.75
2023-05-05T05:53:39.712Z,3.83
2023-05-05T05:54:42.848Z,4.20
2023-05-05T05:55:48.778Z,3.72
2023-05-05T05:56:50.819Z,3.75
2023-05-05T05:57:56.040Z,3.63
2023-05-05T06:00:04.634Z,3.90
2023-05-05T06:01:13.709Z,3.78
2023-05-05T06:02:19.113Z,3.53
2023-05-05T06:03:21.228Z,3.40
2023-05-05T06:04:23.052Z,3.53
2023-05-05T06:05:24.802Z,3.72
2023-05-05T06:06:27.969Z,3.90
2023-05-05T06:07:29.577Z,4.20
2023-05-05T06:09:35.184Z,3.50
2023-05-05T06:10:36.863Z,3.55
2023-05-05T06:11:46.052Z,3.65
2023-05-05T06:12:47.665Z,3.70
2023-05-05T06:14:51.026Z,3.58
2023-05-05T06:16:55.168Z,3.53
2023-05-05T06:17:59.910Z,3.60
2023-05-05T06:19:01.703Z,3.47
2023-05-05T06:20:03.533Z,3.55
2023-05-05T06:21:07.355Z,3.30
2023-05-05T06:22:11.430Z,3.28
2023-05-05T06:23:15.198Z,3.47
2023-05-05T06:24:21.694Z,3.40
2023-05-05T06:25:23.384Z,3.20
2023-05-05T06:26:26.118Z,3.50
2023-05-05T06:28:29.368Z,3.53
2023-05-05T06:29:31.112Z,3.20
2023-05-05T06:31:38.973Z,3.42
2023-05-05T06:32:40.710Z,3.70
2023-05-05T06:34:44.986Z,3.53
2023-05-05T06:35:47.806Z,3.45
2023-05-05T06:36:49.563Z,3.20
2023-05-05T06:38:53.934Z,3.00
2023-05-05T06:39:56.731Z,2.85
2023-05-05T06:40:58.640Z,3.38
2023-05-05T06:42:00.260Z,2.92
2023-05-05T06:44:10.719Z,3.22
2023-05-05T06:45:12.692Z,3.22
2023-05-05T06:46:16.488Z,3.33
2023-05-05T06:47:18.071Z,3.33
2023-05-05T06:48:24.306Z,3.03
2023-05-05T06:49:26.204Z,3.45
2023-05-05T06:50:27.923Z,3.17
2023-05-05T06:52:31.557Z,3.70
2023-05-05T06:53:33.278Z,3.30
2023-05-05T06:55:43.026Z,3.13
2023-05-05T06:56:44.718Z,3.50
2023-05-05T06:58:47.911Z,3.40
2023-05-05T06:59:49.553Z,3.10
2023-05-05T07:01:52.691Z,3.38
2023-05-05T07:02:56.641Z,3.08
2023-05-05T07:05:00.005Z,3.13
2023-05-05T07:07:05.521Z,3.10
2023-05-05T07:08:08.951Z,3.20
2023-05-05T07:09:10.530Z,2.90
2023-05-05T07:10:14.464Z,3.42
2023-05-05T07:11:16.193Z,3.50
2023-05-05T07:13:21.718Z,3.15
2023-05-05T07:15:29.820Z,3.60
2023-05-05T07:16:34.545Z,3.63
2023-05-05T07:17:36.257Z,3.05
2023-05-05T07:18:37.917Z,3.35
2023-05-05T07:20:41.390Z,3.60
2023-05-05T07:21:43.074Z,2.90
2023-05-05T07:23:47.716Z,3.00
2023-05-05T07:24:49.880Z,3.00
2023-05-05T07:25:54.764Z,3.40
2023-05-05T07:26:56.478Z,3.40
2023-05-05T07:28:59.920Z,3.13
2023-05-05T07:31:03.292Z,3.38
2023-05-05T07:32:05.289Z,2.90
2023-05-05T07:33:11.229Z,3.13
2023-05-05T07:34:12.973Z,2.67
2023-05-05T07:36:17.870Z,3.17
2023-05-05T07:37:21.672Z,3.15
2023-05-05T07:39:24.910Z,3.28
2023-05-05T07:41:29.541Z,3.25
2023-05-05T07:42:31.233Z,3.10
2023-05-05T07:43:32.885Z,3.50
2023-05-05T07:45:38.820Z,3.20
2023-05-05T07:46:40.426Z,3.50
2023-05-05T07:47:42.002Z,3.20
2023-05-05T07:49:45.248Z,3.20
2023-05-05T07:50:49.157Z,3.20
2023-05-05T07:53:02.508Z,2.70
2023-05-05T07:54:12.386Z,3.03
2023-05-05T07:55:14.106Z,2.70
2023-05-05T07:57:17.426Z,3.30
2023-05-05T07:58:19.048Z,2.90
2023-05-05T07:59:23.024Z,3.40
2023-05-05T08:00:24.833Z,3.67
2023-05-05T08:01:29.163Z,3.58
2023-05-05T08:03:32.468Z,3.05
2023-05-05T08:04:34.136Z,3.33
2023-05-05T08:05:36.045Z,3.30
2023-05-05T08:06:37.608Z,3.38
2023-05-05T08:07:41.700Z,3.13
2023-05-05T08:08:48.880Z,3.28
2023-05-05T08:09:50.462Z,3.08
2023-05-05T08:11:57.300Z,3.10
2023-05-05T08:12:58.998Z,3.45
2023-05-05T08:14:00.738Z,3.50
2023-05-05T08:15:02.457Z,3.33
2023-05-05T08:17:05.953Z,3.10
2023-05-05T08:19:17.835Z,3.10
2023-05-05T08:20:30.017Z,3.03
2023-05-05T08:21:31.808Z,3.13
2023-05-05T08:22:33.439Z,3.13
2023-05-05T08:24:37.283Z,3.20
2023-05-05T08:26:42.595Z,3.30
2023-05-05T08:27:46.731Z,3.22
2023-05-05T08:28:48.783Z,3.10
2023-05-05T08:29:50.394Z,3.15
2023-05-05T08:30:52.033Z,3.13
2023-05-05T08:32:55.648Z,3.33
2023-05-05T08:33:57.536Z,3.00
2023-05-05T08:35:02.005Z,2.80
2023-05-05T08:36:06.263Z,3.30
2023-05-05T08:37:07.935Z,3.10
2023-05-05T08:39:13.286Z,3.95
2023-05-05T08:40:14.972Z,2.70
2023-05-05T08:42:36.284Z,2.80
2023-05-05T08:43:39.379Z,3.25
2023-05-05T08:44:44.298Z,2.70
2023-05-05T08:45:46.442Z,2.70
2023-05-05T08:46:49.327Z,2.75
2023-05-05T08:47:53.308Z,2.92
2023-05-05T08:48:55.635Z,2.83
2023-05-05T08:49:59.498Z,3.22
2023-05-05T08:51:06.587Z,2.90
2023-05-05T08:52:13.777Z,2.85
2023-05-05T08:53:30.298Z,2.50
2023-05-05T08:54:38.243Z,2.63
2023-05-05T08:56:00.779Z,2.70
2023-05-05T08:58:09.773Z,2.60
2023-05-05T08:59:12.494Z,2.60
2023-05-05T09:00:14.681Z,2.53
2023-05-05T09:01:16.960Z,2.42
2023-05-05T09:02:23.760Z,3.10
2023-05-05T09:03:27.018Z,2.67
2023-05-05T09:04:28.752Z,2.72
2023-05-05T09:06:32.431Z,2.60
2023-05-05T09:07:34.778Z,2.65
2023-05-05T09:08:41.507Z,2.83
2023-05-05T09:09:44.160Z,3.00
2023-05-05T09:10:46.575Z,2.60
2023-05-05T09:11:48.384Z,2.80
2023-05-05T09:12:51.510Z,2.65
2023-05-05T09:13:56.006Z,2.38
2023-05-05T09:15:03.528Z,2.58
2023-05-05T09:16:05.488Z,3.08
2023-05-05T09:17:21.792Z,2.80
2023-05-05T09:18:23.432Z,2.67
2023-05-05T09:20:39.751Z,2.72
2023-05-05T09:21:50.760Z,2.28
2023-05-05T09:22:54.755Z,2.55
2023-05-05T09:24:10.868Z,2.85
2023-05-05T09:25:14.937Z,2.50
2023-05-05T09:26:17.082Z,2.67
2023-05-05T09:27:25.822Z,2.70
2023-05-05T09:28:30.328Z,2.65
2023-05-05T09:29:31.982Z,2.50
2023-05-05T09:31:37.682Z,2.60
2023-05-05T09:32:50.853Z,2.30
2023-05-05T09:33:52.522Z,2.78
2023-05-05T09:36:02.931Z,3.03
2023-05-05T09:38:12.329Z,2.47
2023-05-05T09:39:16.704Z,2.83
2023-05-05T09:40:20.122Z,2.65
2023-05-05T09:41:37.729Z,2.88
2023-05-05T09:42:40.545Z,2.72
2023-05-05T09:43:52.395Z,2.60
2023-05-05T09:44:56.855Z,3.08
2023-05-05T09:46:09.681Z,2.60
2023-05-05T09:47:22.377Z,2.78
2023-05-05T09:48:32.335Z,2.83
2023-05-05T09:49:34.081Z,2.20
2023-05-05T09:51:47.566Z,2.45
2023-05-05T09:53:03.017Z,2.60
2023-05-05T09:54:04.635Z,2.45
2023-05-05T09:55:10.627Z,2.70
2023-05-05T09:56:12.349Z,3.05
2023-05-05T09:58:33.527Z,2.63
2023-05-05T09:59:35.128Z,2.80
2023-05-05T10:00:39.283Z,2.55
2023-05-05T10:01:43.869Z,2.80
2023-05-05T10:02:45.923Z,2.38
2023-05-05T10:03:53.858Z,2.75
2023-05-05T10:05:21.485Z,2.67
2023-05-05T10:06:40.128Z,2.40
2023-05-05T10:07:44.661Z,2.70
2023-05-05T10:09:01.440Z,2.60
2023-05-05T10:10:08.446Z,2.83
2023-05-05T10:11:11.094Z,2.85
2023-05-05T10:12:12.769Z,2.75
2023-05-05T10:14:18.721Z,2.50
2023-05-05T10:15:21.364Z,2.53
2023-05-05T10:16:24.323Z,2.40
2023-05-05T10:17:30.003Z,2.47
2023-05-05T10:18:32.456Z,2.50
2023-05-05T10:19:35.797Z,2.72
2023-05-05T10:20:38.802Z,2.80
2023-05-05T10:21:43.748Z,2.30
2023-05-05T10:22:52.695Z,2.40
2023-05-05T10:24:32.729Z,2.78
2023-05-05T10:25:46.448Z,2.90
2023-05-05T10:26:52.013Z,2.50
2023-05-05T10:27:59.087Z,2.30
2023-05-05T10:29:04.188Z,3.30
2023-05-05T10:30:07.731Z,2.80
2023-05-05T10:31:25.962Z,2.50
2023-05-05T10:34:23.728Z,2.53
2023-05-05T10:35:27.755Z,2.70
2023-05-05T10:36:30.490Z,2.65
2023-05-05T10:37:32.964Z,2.20
2023-05-05T10:38:36.104Z,3.10
2023-05-05T10:39:41.499Z,2.67
2023-05-05T10:40:45.765Z,2.72
2023-05-05T10:41:48.110Z,2.40
2023-05-05T10:42:50.915Z,2.53
2023-05-05T10:43:59.968Z,2.67
2023-05-05T10:45:05.815Z,2.60
2023-05-05T10:46:12.049Z,2.50
2023-05-05T10:47:14.183Z,2.60
2023-05-05T10:48:40.965Z,2.67
2023-05-05T10:49:53.297Z,2.60
2023-05-05T10:51:03.453Z,2.38
2023-05-05T10:52:26.181Z,2.55
2023-05-05T10:53:39.342Z,2.60
2023-05-05T10:54:50.156Z,2.72
2023-05-05T10:56:15.214Z,2.20
2023-05-05T10:57:22.530Z,2.67
2023-05-05T10:58:55.362Z,2.42
2023-05-05T11:00:00.366Z,3.00
2023-05-05T11:02:31.424Z,2.80
2023-05-05T11:03:33.567Z,2.65
2023-05-05T11:04:35.310Z,2.60
2023-05-05T11:05:36.972Z,2.60
2023-05-05T11:06:38.570Z,2.60
2023-05-05T11:08:44.038Z,2.75
2023-05-05T11:10:01.269Z,2.50
2023-05-05T11:11:04.106Z,2.45
2023-05-05T11:12:06.578Z,2.50
2023-05-05T11:13:08.192Z,3.22
2023-05-05T11:14:21.349Z,2.72
2023-05-05T11:15:31.792Z,2.53
2023-05-05T11:16:47.857Z,2.38
2023-05-05T11:17:49.991Z,2.83
2023-05-05T11:18:51.770Z,2.38
2023-05-05T11:19:55.927Z,2.53
2023-05-05T11:20:57.524Z,2.30
2023-05-05T11:22:02.943Z,2.33
2023-05-05T11:23:05.166Z,2.60
2023-05-05T11:24:29.188Z,2.50
2023-05-05T11:25:36.759Z,2.33
2023-05-05T11:26:52.266Z,2.50
2023-05-05T11:28:17.623Z,2.60
2023-05-05T11:30:20.721Z,2.88
2023-05-05T11:32:25.110Z,2.33
2023-05-05T11:33:37.746Z,2.50
2023-05-05T11:34:49.956Z,2.25
2023-05-05T11:35:58.803Z,2.30
2023-05-05T11:37:03.256Z,2.10
2023-05-05T11:38:08.226Z,2.65
2023-05-05T11:39:26.618Z,2.50
2023-05-05T11:40:35.079Z,2.40
2023-05-05T11:42:18.211Z,2.72
2023-05-05T11:44:30.807Z,2.50
2023-05-05T11:45:32.706Z,2.67
2023-05-05T11:46:34.347Z,2.75
2023-05-05T11:47:36.268Z,2.63
2023-05-05T11:48:50.988Z,2.80
2023-05-05T11:49:52.751Z,2.60
2023-05-05T11:50:54.687Z,2.90
2023-05-05T11:52:13.046Z,2.42
2023-05-05T11:53:18.576Z,2.53
2023-05-05T11:54:21.317Z,2.70
2023-05-05T11:55:23.159Z,2.20
2023-05-05T11:56:24.946Z,2.67
2023-05-05T11:57:29.937Z,2.35
2023-05-05T11:58:31.558Z,2.28
2023-05-05T11:59:37.410Z,2.42
2023-05-05T12:00:39.169Z,2.58
2023-05-05T12:01:41.388Z,2.30
2023-05-05T12:02:43.257Z,2.22
2023-05-05T12:03:45.434Z,2.63
2023-05-05T12:04:48.209Z,2.70
2023-05-05T12:05:54.580Z,2.35
2023-05-05T12:06:59.385Z,2.50
2023-05-05T12:08:01.446Z,2.42
2023-05-05T12:09:04.120Z,2.35
2023-05-05T12:10:09.655Z,2.63
2023-05-05T12:11:11.749Z,2.90
2023-05-05T12:12:14.552Z,2.47
2023-05-05T12:13:20.489Z,2.47
2023-05-05T12:14:25.539Z,2.55
2023-05-05T12:15:32.854Z,2.33
2023-05-05T12:16:37.730Z,2.70
2023-05-05T12:17:45.738Z,2.28
2023-05-05T12:18:47.383Z,2.58
2023-05-05T12:20:52.931Z,2.20
2023-05-05T12:21:54.652Z,2.63
2023-05-05T12:23:03.183Z,2.10
2023-05-05T12:24:05.212Z,2.30
2023-05-05T12:25:08.379Z,2.25
2023-05-05T12:26:26.009Z,2.47
2023-05-05T12:27:28.633Z,2.40
2023-05-05T12:28:47.806Z,2.80
2023-05-05T12:29:49.862Z,2.17
2023-05-05T12:30:58.955Z,2.28
2023-05-05T12:32:04.252Z,2.28
2023-05-05T12:33:07.940Z,2.38
2023-05-05T12:34:12.639Z,2.45
2023-05-05T12:35:15.976Z,2.10
2023-05-05T12:36:18.079Z,2.30
2023-05-05T12:37:20.633Z,2.47
2023-05-05T12:38:22.281Z,2.30
2023-05-05T12:40:49.142Z,2.72
2023-05-05T12:41:51.259Z,2.55
2023-05-05T12:42:53.757Z,2.60
2023-05-05T12:43:59.896Z,2.47
2023-05-05T12:45:01.753Z,2.42
2023-05-05T12:46:13.512Z,2.50
2023-05-05T12:47:29.096Z,2.42
2023-05-05T12:48:33.946Z,2.55
2023-05-05T12:49:52.054Z,2.63
2023-05-05T12:50:54.033Z,2.70
2023-05-05T12:51:57.210Z,2.40
2023-05-05T12:52:58.834Z,2.65
2023-05-05T12:54:09.682Z,2.83
2023-05-05T12:55:12.144Z,2.70
2023-05-05T12:56:33.792Z,2.58
2023-05-05T12:57:35.470Z,2.80
2023-05-05T12:58:48.564Z,2.72
2023-05-05T12:59:51.100Z,2.85
2023-05-05T13:01:11.186Z,2.80
2023-05-05T13:02:12.936Z,2.85
2023-05-05T13:03:20.848Z,2.80
2023-05-05T13:04:27.056Z,2.53
2023-05-05T13:05:33.030Z,3.83
2023-05-05T13:06:34.952Z,2.33
2023-05-05T13:07:48.979Z,2.40
2023-05-05T13:08:53.116Z,2.25
2023-05-05T13:10:07.322Z,2.67
2023-05-05T13:11:08.988Z,2.53
2023-05-05T13:12:13.368Z,3.00
2023-05-05T13:13:17.787Z,2.83
2023-05-05T13:14:19.618Z,2.83
2023-05-05T13:15:23.969Z,2.30
2023-05-05T13:16:25.756Z,2.40
2023-05-05T13:17:29.922Z,2.70
2023-05-05T13:18:31.642Z,2.80
2023-05-05T13:20:37.081Z,2.97
2023-05-05T13:21:38.752Z,3.05
2023-05-05T13:23:45.516Z,2.83
2023-05-05T13:24:52.492Z,2.58
2023-05-05T13:26:08.705Z,3.13
2023-05-05T13:28:12.100Z,2.72
2023-05-05T13:29:16.620Z,2.83
2023-05-05T13:30:18.329Z,3.15
2023-05-05T13:31:20.036Z,2.75
2023-05-05T13:32:24.119Z,2.70
2023-05-05T13:33:25.905Z,2.75
2023-05-05T13:34:27.532Z,2.80
2023-05-05T13:35:32.994Z,2.33
2023-05-05T13:36:34.934Z,2.40
2023-05-05T13:37:39.079Z,2.75
2023-05-05T13:38:43.226Z,2.50
2023-05-05T13:39:44.862Z,2.88
2023-05-05T13:40:46.522Z,2.70
2023-05-05T13:42:49.782Z,2.38
2023-05-05T13:43:53.920Z,2.45
2023-05-05T13:44:55.609Z,2.60
2023-05-05T13:46:05.642Z,2.85
2023-05-05T13:47:14.643Z,2.78
2023-05-05T13:48:16.524Z,2.78
2023-05-05T13:49:18.176Z,2.50
2023-05-05T13:50:19.855Z,2.60
2023-05-05T13:51:21.553Z,2.30
2023-05-05T13:53:25.201Z,2.85
2023-05-05T13:54:26.983Z,2.80
2023-05-05T13:55:29.588Z,3.08
2023-05-05T13:56:31.463Z,3.05
2023-05-05T13:57:33.080Z,2.55
2023-05-05T13:59:39.461Z,2.67
2023-05-05T14:00:41.130Z,2.70
2023-05-05T14:01:42.774Z,2.63
2023-05-05T14:02:44.503Z,2.63
2023-05-05T14:03:48.724Z,2.55
2023-05-05T14:04:50.416Z,2.80
2023-05-05T14:05:52.113Z,2.92
2023-05-05T14:06:53.667Z,2.60
2023-05-05T14:08:59.411Z,2.78
2023-05-05T14:10:03.745Z,2.72
2023-05-05T14:11:05.372Z,2.70
2023-05-05T14:12:09.868Z,2.83
2023-05-05T14:13:11.588Z,3.08
2023-05-05T14:14:13.220Z,3.03
2023-05-05T14:15:17.231Z,3.25
2023-05-05T14:16:18.986Z,3.00
2023-05-05T14:17:20.620Z,3.25
2023-05-05T14:18:22.791Z,2.90
2023-05-05T14:19:24.543Z,3.17
2023-05-05T14:20:29.619Z,3.33
2023-05-05T14:21:33.571Z,2.67
2023-05-05T14:22:35.125Z,2.95
2023-05-05T14:24:41.074Z,2.60
2023-05-05T14:25:42.775Z,2.92
2023-05-05T14:26:46.925Z,2.63
2023-05-05T14:27:48.702Z,3.05
2023-05-05T14:28:50.315Z,2.83
2023-05-05T14:29:51.958Z,3.22
2023-05-05T14:30:56.503Z,2.50
2023-05-05T14:32:00.465Z,3.15
2023-05-05T14:33:04.693Z,3.40
2023-05-05T14:34:06.651Z,2.97
2023-05-05T14:35:08.623Z,3.00
2023-05-05T14:36:14.187Z,3.25
2023-05-05T14:37:16.352Z,3.00
2023-05-05T14:38:18.122Z,3.08
2023-05-05T14:39:19.760Z,3.13
2023-05-05T14:40:21.668Z,2.80
2023-05-05T14:41:23.600Z,3.05
2023-05-05T14:42:26.098Z,2.90
2023-05-05T14:43:27.861Z,2.83
2023-05-05T14:44:29.504Z,2.97
2023-05-05T14:45:31.545Z,3.30
2023-05-05T14:46:33.535Z,2.85
2023-05-05T14:47:37.675Z,2.55
2023-05-05T14:48:39.369Z,2.85
2023-05-05T14:49:41.027Z,2.42
2023-05-05T14:50:42.757Z,3.00
2023-05-05T14:51:46.768Z,3.00
2023-05-05T14:52:48.432Z,2.88
2023-05-05T14:54:51.689Z,3.03
2023-05-05T14:55:53.402Z,2.40
2023-05-05T14:56:55.308Z,2.75
2023-05-05T14:57:56.936Z,2.70
2023-05-05T14:58:58.590Z,2.50
2023-05-05T15:01:04.981Z,2.75
2023-05-05T15:02:07.003Z,2.35
2023-05-05T15:03:08.719Z,2.08
2023-05-05T15:04:10.424Z,1.98
2023-05-05T15:05:12.206Z,2.78
2023-05-05T15:06:13.894Z,2.15
2023-05-05T15:08:19.244Z,2.38
2023-05-05T15:09:20.889Z,2.17
2023-05-05T15:10:22.699Z,2.55
2023-05-05T15:11:24.403Z,2.03
2023-05-05T15:13:31.150Z,2.13
2023-05-05T15:14:38.089Z,2.20
2023-05-05T15:15:39.855Z,2.28
2023-05-05T15:17:45.460Z,2.20
2023-05-05T15:18:47.103Z,2.20
2023-05-05T15:20:50.881Z,2.22
2023-05-05T15:21:54.148Z,2.20
2023-05-05T15:22:55.860Z,2.08
2023-05-05T15:23:57.568Z,2.25
2023-05-05T15:25:01.628Z,2.10
2023-05-05T15:26:03.792Z,2.20
2023-05-05T15:27:07.495Z,1.77
2023-05-05T15:28:09.140Z,2.30
2023-05-05T15:30:14.977Z,2.10
2023-05-05T15:31:16.694Z,2.17
2023-05-05T15:32:20.975Z,2.50
2023-05-05T15:33:22.596Z,2.40
2023-05-05T15:34:24.221Z,2.30
2023-05-05T15:36:28.612Z,1.95
2023-05-05T15:37:30.664Z,2.13
2023-05-05T15:38:41.664Z,2.25
2023-05-05T15:39:43.275Z,2.08
2023-05-05T15:40:46.706Z,2.20
2023-05-05T15:41:49.923Z,2.28
2023-05-05T15:42:53.898Z,2.25
2023-05-05T15:43:55.779Z,2.67
2023-05-05T15:44:59.024Z,2.03
2023-05-05T15:46:00.706Z,2.72
2023-05-05T15:48:04.153Z,2.60
2023-05-05T15:49:05.908Z,2.60
2023-05-05T15:51:12.608Z,2.47
2023-05-05T15:52:14.289Z,2.20
2023-05-05T15:54:18.215Z,2.70
2023-05-05T15:56:21.499Z,2.60
2023-05-05T15:57:25.317Z,2.20
2023-05-05T15:58:27.044Z,2.53
2023-05-05T16:00:34.800Z,2.30
2023-05-05T16:01:36.772Z,2.30
2023-05-05T16:02:38.522Z,2.53
2023-05-05T16:03:41.310Z,2.10
2023-05-05T16:04:45.072Z,2.50
2023-05-05T16:05:47.182Z,2.20
2023-05-05T16:06:48.866Z,2.45
2023-05-05T16:07:50.580Z,2.33
2023-05-05T16:09:57.643Z,2.50
2023-05-05T16:12:00.898Z,2.47
2023-05-05T16:13:02.565Z,2.28
2023-05-05T16:14:04.338Z,2.25
2023-05-05T16:15:07.065Z,2.63
2023-05-05T16:16:08.726Z,2.72
2023-05-05T16:18:11.937Z,2.55
2023-05-05T16:20:15.206Z,2.40
2023-05-05T16:21:16.826Z,3.00
2023-05-05T16:23:22.576Z,2.78
2023-05-05T16:24:24.178Z,2.45
2023-05-05T16:25:25.796Z,2.70
2023-05-05T16:26:27.461Z,2.40
2023-05-05T16:27:31.372Z,2.50
2023-05-05T16:28:34.330Z,2.60